createdAt,value
2023-04-20T00:01:18.431Z,75.00
2023-04-20T00:03:13.778Z,75.00
2023-04-20T00:05:13.652Z,75.00
2023-04-20T00:07:13.552Z,75.00
2023-04-20T00:09:13.611Z,75.00
2023-04-20T00:11:13.500Z,75.00
2023-04-20T00:13:13.649Z,75.00
2023-04-20T00:15:13.512Z,75.00
2023-04-20T00:17:13.577Z,75.00
2023-04-20T00:19:14.514Z,75.00
2023-04-20T00:21:13.827Z,75.00
2023-04-20T00:23:13.575Z,76.00
2023-04-20T00:25:13.546Z,76.00
2023-04-20T00:27:13.769Z,76.00
2023-04-20T00:29:13.535Z,76.00
2023-04-20T00:31:18.459Z,76.00
2023-04-20T00:33:13.733Z,76.00
2023-04-20T00:35:13.690Z,76.00
2023-04-20T00:37:13.593Z,76.00
2023-04-20T00:39:13.556Z,76.00
2023-04-20T00:41:13.555Z,76.00
2023-04-20T00:43:15.004Z,76.00
2023-04-20T00:45:13.571Z,76.00
2023-04-20T00:47:13.691Z,76.00
2023-04-20T00:49:13.579Z,76.00
2023-04-20T00:51:13.580Z,76.00
2023-04-20T00:53:13.530Z,76.00
2023-04-20T00:55:13.780Z,76.00
2023-04-20T00:57:13.543Z,76.00
2023-04-20T00:59:14.854Z,76.00
2023-04-20T01:01:13.596Z,76.00
2023-04-20T01:03:14.329Z,76.00
2023-04-20T01:05:13.600Z,76.00
2023-04-20T01:07:13.573Z,76.00
2023-04-20T01:09:13.826Z,76.00
2023-04-20T01:11:13.532Z,76.00
2023-04-20T01:13:13.532Z,76.00
2023-04-20T01:15:13.556Z,76.00
2023-04-20T01:17:13.599Z,76.00
2023-04-20T01:19:13.584Z,76.00
2023-04-20T01:21:13.519Z,76.00
2023-04-20T01:23:13.628Z,76.00
2023-04-20T01:25:13.573Z,77.00
2023-04-20T01:27:13.621Z,77.00
2023-04-20T01:29:13.680Z,77.00
2023-04-20T01:31:13.708Z,77.00
2023-04-20T01:33:13.596Z,77.00
2023-04-20T01:35:13.697Z,77.00
2023-04-20T01:37:13.681Z,77.00
2023-04-20T01:39:13.647Z,77.00
2023-04-20T01:41:14.435Z,77.00
2023-04-20T01:43:13.580Z,77.00
2023-04-20T01:45:13.594Z,77.00
2023-04-20T01:47:13.598Z,77.00
2023-04-20T01:49:13.586Z,77.00
2023-04-20T01:51:13.554Z,77.00
2023-04-20T01:53:13.616Z,78.00
2023-04-20T01:55:13.748Z,78.00
2023-04-20T01:57:13.557Z,78.00
2023-04-20T01:59:13.543Z,78.00
2023-04-20T02:01:13.678Z,78.00
2023-04-20T02:03:13.700Z,78.00
2023-04-20T02:05:14.025Z,78.00
2023-04-20T02:07:16.234Z,78.00
2023-04-20T02:09:13.689Z,78.00
2023-04-20T02:11:14.742Z,78.00
2023-04-20T02:13:13.673Z,78.00
2023-04-20T02:15:13.695Z,78.00
2023-04-20T02:17:13.757Z,78.00
2023-04-20T02:19:13.619Z,78.00
2023-04-20T02:21:13.673Z,78.00
2023-04-20T02:23:13.591Z,78.00
2023-04-20T02:25:18.333Z,78.00
2023-04-20T02:27:13.589Z,78.00
2023-04-20T02:29:13.571Z,78.00
2023-04-20T02:31:16.439Z,78.00
2023-04-20T02:33:16.595Z,78.00
2023-04-20T02:35:13.564Z,78.00
2023-04-20T02:37:13.573Z,78.00
2023-04-20T02:39:13.564Z,78.00
2023-04-20T02:41:13.672Z,78.00
2023-04-20T02:43:13.627Z,78.00
2023-04-20T02:45:16.350Z,78.00
2023-04-20T02:47:13.596Z,78.00
2023-04-20T02:49:13.638Z,78.00
2023-04-20T02:51:13.695Z,78.00
2023-04-20T02:53:13.579Z,78.00
2023-04-20T02:55:13.707Z,78.00
2023-04-20T02:57:13.690Z,78.00
2023-04-20T02:59:13.590Z,78.00
2023-04-20T03:01:13.891Z,78.00
2023-04-20T03:03:14.005Z,78.00
2023-04-20T03:05:13.673Z,78.00
2023-04-20T03:07:15.236Z,78.00
2023-04-20T03:09:13.590Z,78.00
2023-04-20T03:11:13.661Z,78.00
2023-04-20T03:14:13.651Z,78.00
2023-04-20T03:16:13.706Z,78.00
2023-04-20T03:18:13.640Z,78.00
2023-04-20T03:20:16.403Z,78.00
2023-04-20T03:22:13.590Z,78.00
2023-04-20T03:24:13.605Z,78.00
2023-04-20T03:26:18.547Z,78.00
2023-04-20T03:28:13.574Z,78.00
2023-04-20T03:30:13.659Z,78.00
2023-04-20T03:32:13.756Z,78.00
2023-04-20T03:34:13.668Z,79.00
2023-04-20T03:36:13.655Z,79.00
2023-04-20T03:38:14.365Z,79.00
2023-04-20T03:40:13.683Z,79.00
2023-04-20T03:42:13.638Z,79.00
2023-04-20T03:44:14.074Z,79.00
2023-04-20T03:46:13.626Z,79.00
2023-04-20T03:48:13.648Z,79.00
2023-04-20T03:50:13.632Z,79.00
2023-04-20T03:52:13.745Z,79.00
2023-04-20T03:54:13.639Z,79.00
2023-04-20T03:56:13.648Z,79.00
2023-04-20T03:58:13.693Z,79.00
2023-04-20T04:00:13.706Z,79.00
2023-04-20T04:02:13.885Z,79.00
2023-04-20T04:04:14.005Z,79.00
2023-04-20T04:06:13.830Z,79.00
2023-04-20T04:08:13.703Z,79.00
2023-04-20T04:10:16.777Z,79.00
2023-04-20T04:12:13.786Z,79.00
2023-04-20T04:14:13.716Z,79.00
2023-04-20T04:16:14.105Z,79.00
2023-04-20T04:18:13.772Z,79.00
2023-04-20T04:20:13.720Z,79.00
2023-04-20T04:22:13.685Z,79.00
2023-04-20T04:24:13.780Z,79.00
2023-04-20T04:26:14.262Z,79.00
2023-04-20T04:28:13.817Z,79.00
2023-04-20T04:30:13.820Z,79.00
2023-04-20T04:32:13.625Z,79.00
2023-04-20T04:34:13.636Z,79.00
2023-04-20T04:36:15.962Z,79.00
2023-04-20T04:38:13.735Z,79.00
2023-04-20T04:40:13.788Z,79.00
2023-04-20T04:42:13.792Z,79.00
2023-04-20T04:44:13.802Z,79.00
2023-04-20T04:46:13.777Z,79.00
2023-04-20T04:48:13.779Z,79.00
2023-04-20T04:50:13.724Z,79.00
2023-04-20T04:52:14.648Z,79.00
2023-04-20T04:54:13.722Z,79.00
2023-04-20T04:56:13.817Z,79.00
2023-04-20T04:58:14.328Z,79.00
2023-04-20T05:00:22.837Z,80.00
2023-04-20T05:02:13.967Z,80.00
2023-04-20T05:04:25.584Z,80.00
2023-04-20T05:06:25.483Z,80.00
2023-04-20T05:08:26.030Z,80.00
2023-04-20T05:10:25.778Z,80.00
2023-04-20T05:12:25.456Z,80.00
2023-04-20T05:14:25.632Z,80.00
2023-04-20T05:16:30.407Z,80.00
2023-04-20T05:18:25.516Z,80.00
2023-04-20T05:20:25.507Z,80.00
2023-04-20T05:22:25.459Z,80.00
2023-04-20T05:24:25.642Z,80.00
2023-04-20T05:26:25.496Z,80.00
2023-04-20T05:28:25.461Z,80.00
2023-04-20T05:30:28.103Z,80.00
2023-04-20T05:32:25.692Z,80.00
2023-04-20T05:34:25.551Z,80.00
2023-04-20T05:36:30.954Z,80.00
2023-04-20T05:38:25.470Z,80.00
2023-04-20T05:40:25.479Z,80.00
2023-04-20T05:42:25.473Z,80.00
2023-04-20T05:44:25.655Z,80.00
2023-04-20T05:46:25.552Z,80.00
2023-04-20T05:48:26.735Z,80.00
2023-04-20T05:50:26.011Z,80.00
2023-04-20T05:52:25.516Z,80.00
2023-04-20T05:54:25.528Z,80.00
2023-04-20T05:56:25.627Z,79.00
2023-04-20T05:58:25.473Z,79.00
2023-04-20T06:00:26.319Z,79.00
2023-04-20T06:02:25.646Z,79.00
2023-04-20T06:04:25.853Z,79.00
2023-04-20T06:06:29.575Z,78.00
2023-04-20T06:08:25.478Z,78.00
2023-04-20T06:10:28.000Z,78.00
2023-04-20T06:12:26.822Z,78.00
2023-04-20T06:14:30.473Z,78.00
2023-04-20T06:16:25.536Z,78.00
2023-04-20T06:18:25.519Z,78.00
2023-04-20T06:20:25.515Z,78.00
2023-04-20T06:22:25.488Z,78.00
2023-04-20T06:24:25.614Z,78.00
2023-04-20T06:26:25.684Z,78.00
2023-04-20T06:28:25.512Z,78.00
2023-04-20T06:30:25.747Z,78.00
2023-04-20T06:32:25.553Z,77.00
2023-04-20T06:34:25.501Z,77.00
2023-04-20T06:36:25.490Z,77.00
2023-04-20T06:38:25.509Z,77.00
2023-04-20T06:40:25.648Z,77.00
2023-04-20T06:42:25.659Z,77.00
2023-04-20T06:44:25.553Z,77.00
2023-04-20T06:46:25.819Z,77.00
2023-04-20T06:48:32.387Z,77.00
2023-04-20T06:50:25.586Z,77.00
2023-04-20T06:52:25.531Z,77.00
2023-04-20T06:54:25.470Z,77.00
2023-04-20T06:56:25.755Z,77.00
2023-04-20T06:58:25.581Z,77.00
2023-04-20T07:00:25.506Z,76.00
2023-04-20T07:02:25.583Z,76.00
2023-04-20T07:04:25.582Z,76.00
2023-04-20T07:06:25.549Z,76.00
2023-04-20T07:08:25.528Z,76.00
2023-04-20T07:10:28.595Z,76.00
2023-04-20T07:12:28.029Z,76.00
2023-04-20T07:14:25.501Z,76.00
2023-04-20T07:16:28.113Z,76.00
2023-04-20T07:18:25.733Z,76.00
2023-04-20T07:20:31.264Z,76.00
2023-04-20T07:22:25.566Z,76.00
2023-04-20T07:24:25.581Z,76.00
2023-04-20T07:26:25.493Z,76.00
2023-04-20T07:28:25.489Z,76.00
2023-04-20T07:30:25.780Z,76.00
2023-04-20T07:32:25.532Z,76.00
2023-04-20T07:34:30.381Z,76.00
2023-04-20T07:37:27.126Z,75.00
2023-04-20T07:38:27.264Z,75.00
2023-04-20T07:41:25.509Z,75.00
2023-04-20T07:43:25.757Z,75.00
2023-04-20T07:44:28.491Z,75.00
2023-04-20T07:47:25.563Z,75.00
2023-04-20T07:48:31.183Z,75.00
2023-04-20T07:51:31.226Z,75.00
2023-04-20T07:53:25.495Z,75.00
2023-04-20T07:55:25.589Z,75.00
2023-04-20T07:57:25.578Z,75.00
2023-04-20T07:59:25.492Z,75.00
2023-04-20T08:01:25.530Z,75.00
2023-04-20T08:03:25.745Z,75.00
2023-04-20T08:05:25.666Z,75.00
2023-04-20T08:07:30.404Z,75.00
2023-04-20T08:09:25.619Z,75.00
2023-04-20T08:11:30.402Z,75.00
2023-04-20T08:13:25.523Z,75.00
2023-04-20T08:15:25.708Z,75.00
2023-04-20T08:17:25.556Z,75.00
2023-04-20T08:19:25.653Z,75.00
2023-04-20T08:21:26.222Z,75.00
2023-04-20T08:23:25.551Z,75.00
2023-04-20T08:25:26.887Z,75.00
2023-04-20T08:27:25.582Z,75.00
2023-04-20T08:29:25.616Z,75.00
2023-04-20T08:31:25.642Z,75.00
2023-04-20T08:33:25.590Z,75.00
2023-04-20T08:35:25.534Z,75.00
2023-04-20T08:37:25.600Z,75.00
2023-04-20T08:39:25.534Z,75.00
2023-04-20T08:41:25.565Z,75.00
2023-04-20T08:43:25.518Z,75.00
2023-04-20T08:45:25.520Z,75.00
2023-04-20T08:47:25.582Z,75.00
2023-04-20T08:49:25.546Z,75.00
2023-04-20T08:51:25.605Z,75.00
2023-04-20T08:53:27.010Z,75.00
2023-04-20T08:55:29.061Z,75.00
2023-04-20T08:57:25.583Z,75.00
2023-04-20T08:59:27.975Z,75.00
2023-04-20T09:01:34.335Z,75.00
2023-04-20T09:03:25.823Z,75.00
2023-04-20T09:05:25.587Z,75.00
2023-04-20T09:07:25.884Z,75.00
2023-04-20T09:09:25.697Z,75.00
2023-04-20T09:11:25.568Z,75.00
2023-04-20T09:13:25.564Z,75.00
2023-04-20T09:15:25.589Z,76.00
2023-04-20T09:17:25.657Z,76.00
2023-04-20T09:19:25.706Z,76.00
2023-04-20T09:21:25.600Z,76.00
2023-04-20T09:23:25.629Z,75.00
2023-04-20T09:25:30.489Z,75.00
2023-04-20T09:27:25.625Z,75.00
2023-04-20T09:29:25.660Z,75.00
2023-04-20T09:31:25.712Z,75.00
2023-04-20T09:33:25.547Z,75.00
2023-04-20T09:35:25.620Z,75.00
2023-04-20T09:37:25.629Z,75.00
2023-04-20T09:39:25.791Z,75.00
2023-04-20T09:41:28.373Z,74.00
2023-04-20T09:43:25.777Z,75.00
2023-04-20T09:45:30.489Z,75.00
2023-04-20T09:47:25.584Z,75.00
2023-04-20T09:49:28.555Z,75.00
2023-04-20T09:51:25.586Z,75.00
2023-04-20T09:53:25.616Z,75.00
2023-04-20T09:55:25.636Z,75.00
2023-04-20T09:57:25.754Z,75.00
2023-04-20T09:59:29.356Z,75.00
2023-04-20T10:01:30.582Z,75.00
2023-04-20T10:03:25.791Z,75.00
2023-04-20T10:05:25.663Z,75.00
2023-04-20T10:07:25.705Z,75.00
2023-04-20T10:09:25.601Z,75.00
2023-04-20T10:11:26.664Z,75.00
2023-04-20T10:13:25.919Z,75.00
2023-04-20T10:15:28.750Z,75.00
2023-04-20T10:17:30.484Z,75.00
2023-04-20T10:19:25.624Z,75.00
2023-04-20T10:21:25.641Z,74.00
2023-04-20T10:23:25.622Z,74.00
2023-04-20T10:25:25.663Z,74.00
2023-04-20T10:27:25.857Z,74.00
2023-04-20T10:29:25.627Z,74.00
2023-04-20T10:31:25.787Z,74.00
2023-04-20T10:33:25.626Z,74.00
2023-04-20T10:35:25.715Z,74.00
2023-04-20T10:37:25.665Z,73.00
2023-04-20T10:39:25.556Z,73.00
2023-04-20T10:41:31.173Z,74.00
2023-04-20T10:43:25.679Z,73.00
2023-04-20T10:45:31.507Z,73.00
2023-04-20T10:47:31.614Z,73.00
2023-04-20T10:49:25.795Z,73.00
2023-04-20T10:51:28.475Z,73.00
2023-04-20T10:53:25.718Z,73.00
2023-04-20T10:55:26.515Z,73.00
2023-04-20T10:57:25.732Z,73.00
2023-04-20T10:59:25.619Z,73.00
2023-04-20T11:03:25.772Z,73.00
2023-04-20T11:05:26.048Z,73.00
2023-04-20T11:09:42.270Z,73.00
2023-04-20T11:11:42.193Z,73.00
2023-04-20T11:13:51.453Z,73.00
2023-04-20T11:15:42.271Z,73.00
2023-04-20T11:17:42.325Z,73.00
2023-04-20T11:19:42.212Z,73.00
2023-04-20T11:21:42.188Z,73.00
2023-04-20T11:23:42.214Z,73.00
2023-04-20T11:25:42.198Z,73.00
2023-04-20T11:27:42.339Z,73.00
2023-04-20T11:29:42.260Z,73.00
2023-04-20T11:31:42.377Z,73.00
2023-04-20T11:33:42.393Z,73.00
2023-04-20T11:35:45.740Z,73.00
2023-04-20T11:37:42.193Z,73.00
2023-04-20T11:39:42.212Z,73.00
2023-04-20T11:41:42.385Z,73.00
2023-04-20T11:43:42.472Z,73.00
2023-04-20T11:45:42.820Z,73.00
2023-04-20T11:47:42.363Z,74.00
2023-04-20T11:49:42.273Z,74.00
2023-04-20T11:51:42.270Z,74.00
2023-04-20T11:53:42.310Z,74.00
2023-04-20T11:55:42.254Z,74.00
2023-04-20T11:57:42.227Z,74.00
2023-04-20T11:59:42.290Z,74.00
2023-04-20T12:01:42.234Z,74.00
2023-04-20T12:03:43.041Z,74.00
2023-04-20T12:05:42.279Z,75.00
2023-04-20T12:07:42.595Z,74.00
2023-04-20T12:09:42.217Z,74.00
2023-04-20T12:11:42.212Z,74.00
2023-04-20T12:13:42.219Z,75.00
2023-04-20T12:15:42.329Z,74.00
2023-04-20T12:17:42.284Z,74.00
2023-04-20T12:19:42.453Z,74.00
2023-04-20T12:21:44.950Z,74.00
2023-04-20T12:23:42.282Z,74.00
2023-04-20T12:25:42.431Z,74.00
2023-04-20T12:28:42.316Z,74.00
2023-04-20T12:30:42.243Z,74.00
2023-04-20T12:32:42.429Z,74.00
2023-04-20T12:34:42.271Z,74.00
2023-04-20T12:36:46.925Z,74.00
2023-04-20T12:38:42.284Z,74.00
2023-04-20T12:40:42.380Z,74.00
2023-04-20T12:42:47.192Z,74.00
2023-04-20T12:44:42.289Z,74.00
2023-04-20T12:46:42.452Z,74.00
2023-04-20T12:48:42.341Z,74.00
2023-04-20T12:50:42.252Z,74.00
2023-04-20T12:52:45.134Z,74.00
2023-04-20T12:54:43.990Z,74.00
2023-04-20T12:56:44.779Z,74.00
2023-04-20T12:58:47.161Z,74.00
2023-04-20T13:00:44.851Z,74.00
2023-04-20T13:02:42.422Z,74.00
2023-04-20T13:04:42.277Z,74.00
2023-04-20T13:06:42.333Z,74.00
2023-04-20T13:08:42.530Z,74.00
2023-04-20T13:10:42.296Z,74.00
2023-04-20T13:12:47.141Z,74.00
2023-04-20T13:14:42.266Z,74.00
2023-04-20T13:16:42.473Z,74.00
2023-04-20T13:18:42.288Z,73.00
2023-04-20T13:20:42.533Z,73.00
2023-04-20T13:22:56.807Z,73.00
2023-04-20T13:24:42.274Z,74.00
2023-04-20T13:26:42.305Z,74.00
2023-04-20T13:28:42.262Z,74.00
2023-04-20T13:30:42.236Z,73.00
2023-04-20T13:32:42.499Z,73.00
2023-04-20T13:34:42.468Z,73.00
2023-04-20T13:36:43.077Z,73.00
2023-04-20T13:38:42.352Z,73.00
2023-04-20T13:40:42.536Z,73.00
2023-04-20T13:42:42.335Z,73.00
2023-04-20T13:44:42.373Z,73.00
2023-04-20T13:46:42.299Z,73.00
2023-04-20T13:48:42.340Z,73.00
2023-04-20T13:50:47.180Z,73.00
2023-04-20T13:52:42.437Z,73.00
2023-04-20T13:54:43.377Z,73.00
2023-04-20T13:56:42.507Z,73.00
2023-04-20T13:58:42.444Z,73.00
2023-04-20T14:00:42.370Z,73.00
2023-04-20T14:02:42.458Z,73.00
2023-04-20T14:04:42.377Z,72.00
2023-04-20T14:06:45.323Z,72.00
2023-04-20T14:08:42.456Z,73.00
2023-04-20T14:10:42.321Z,73.00
2023-04-20T14:12:42.431Z,73.00
2023-04-20T14:14:42.400Z,73.00
2023-04-20T14:16:42.348Z,73.00
2023-04-20T14:18:42.364Z,73.00
2023-04-20T14:20:42.292Z,73.00
2023-04-20T14:22:42.447Z,73.00
2023-04-20T14:24:42.353Z,73.00
2023-04-20T14:26:42.332Z,73.00
2023-04-20T14:28:42.387Z,73.00
2023-04-20T14:30:47.259Z,74.00
2023-04-20T14:32:42.939Z,74.00
2023-04-20T14:34:42.377Z,74.00
2023-04-20T14:36:43.370Z,74.00
2023-04-20T14:38:42.313Z,74.00
2023-04-20T14:40:42.510Z,75.00
2023-04-20T14:42:42.339Z,76.00
2023-04-20T14:44:42.392Z,76.00
2023-04-20T14:46:42.679Z,76.00
2023-04-20T14:48:42.384Z,76.00
2023-04-20T14:50:42.432Z,77.00
2023-04-20T14:52:42.426Z,77.00
2023-04-20T14:54:42.464Z,77.00
2023-04-20T14:56:42.367Z,77.00
2023-04-20T14:58:42.351Z,77.00
2023-04-20T15:00:42.458Z,77.00
2023-04-20T15:02:42.450Z,77.00
2023-04-20T15:04:42.596Z,78.00
2023-04-20T15:06:42.390Z,78.00
2023-04-20T15:08:42.409Z,78.00
2023-04-20T15:10:42.746Z,78.00
2023-04-20T15:12:46.520Z,78.00
2023-04-20T15:14:42.367Z,78.00
2023-04-20T15:16:42.469Z,78.00
2023-04-20T15:18:42.340Z,78.00
2023-04-20T15:20:42.349Z,78.00
2023-04-20T15:22:42.407Z,78.00
2023-04-20T15:24:42.345Z,78.00
2023-04-20T15:26:42.378Z,78.00
2023-04-20T15:28:42.594Z,78.00
2023-04-20T15:30:42.523Z,78.00
2023-04-20T15:32:42.479Z,78.00
2023-04-20T15:34:42.458Z,78.00
2023-04-20T15:36:42.391Z,78.00
2023-04-20T15:38:42.389Z,78.00
2023-04-20T15:40:42.378Z,78.00
2023-04-20T15:42:42.350Z,78.00
2023-04-20T15:44:42.618Z,78.00
2023-04-20T15:46:42.451Z,78.00
2023-04-20T15:48:47.333Z,78.00
2023-04-20T15:50:42.759Z,78.00
2023-04-20T15:52:42.516Z,79.00
2023-04-20T15:54:43.667Z,79.00
2023-04-20T15:56:42.606Z,79.00
2023-04-20T15:58:42.378Z,79.00
2023-04-20T16:00:42.400Z,79.00
2023-04-20T16:02:42.648Z,79.00
2023-04-20T16:04:42.619Z,79.00
2023-04-20T16:06:47.090Z,79.00
2023-04-20T16:08:42.348Z,79.00
2023-04-20T16:11:42.518Z,79.00
2023-04-20T16:13:42.935Z,79.00
2023-04-20T16:15:42.517Z,79.00
2023-04-20T16:17:42.741Z,79.00
2023-04-20T16:19:42.404Z,79.00
2023-04-20T16:21:42.596Z,79.00
2023-04-20T16:23:42.465Z,79.00
2023-04-20T16:24:47.371Z,80.00
2023-04-20T16:27:42.371Z,80.00
2023-04-20T16:29:42.438Z,80.00
2023-04-20T16:31:47.100Z,80.00
2023-04-20T16:33:43.800Z,80.00
2023-04-20T16:35:42.517Z,80.00
2023-04-20T16:37:42.479Z,80.00
2023-04-20T16:39:42.404Z,80.00
2023-04-20T16:41:42.692Z,80.00
2023-04-20T16:43:42.393Z,80.00
2023-04-20T16:45:42.507Z,80.00
2023-04-20T16:47:42.425Z,80.00
2023-04-20T16:49:42.452Z,80.00
2023-04-20T16:51:42.401Z,80.00
2023-04-20T16:53:42.533Z,80.00
2023-04-20T16:55:42.458Z,80.00
2023-04-20T16:57:42.467Z,80.00
2023-04-20T16:59:44.057Z,80.00
2023-04-20T17:01:42.496Z,80.00
2023-04-20T17:03:42.519Z,80.00
2023-04-20T17:05:42.450Z,80.00
2023-04-20T17:07:47.264Z,80.00
2023-04-20T17:09:42.551Z,80.00
2023-04-20T17:11:42.429Z,80.00
2023-04-20T17:13:42.645Z,80.00
2023-04-20T17:15:47.619Z,80.00
2023-04-20T17:17:42.498Z,80.00
2023-04-20T17:19:42.451Z,80.00
2023-04-20T17:21:42.520Z,80.00
2023-04-20T17:27:57.267Z,81.00
2023-04-20T17:29:53.538Z,81.00
2023-04-20T17:31:53.570Z,81.00
2023-04-20T17:33:53.678Z,81.00
2023-04-20T17:35:53.524Z,81.00
2023-04-20T17:37:53.488Z,81.00
2023-04-20T17:39:53.815Z,81.00
2023-04-20T17:42:07.871Z,81.00
2023-04-20T17:43:53.498Z,81.00
2023-04-20T17:45:53.551Z,81.00
2023-04-20T17:47:53.580Z,81.00
2023-04-20T17:49:56.642Z,81.00
2023-04-20T17:51:56.219Z,81.00
2023-04-20T17:53:53.614Z,81.00
2023-04-20T17:55:53.688Z,81.00
2023-04-20T17:57:53.476Z,81.00
2023-04-20T17:59:53.522Z,81.00
2023-04-20T18:01:53.695Z,81.00
2023-04-20T18:03:53.639Z,81.00
2023-04-20T18:05:54.433Z,81.00
2023-04-20T18:07:53.479Z,81.00
2023-04-20T18:09:53.504Z,81.00
2023-04-20T18:12:07.822Z,81.00
2023-04-20T18:14:07.964Z,81.00
2023-04-20T18:16:07.855Z,81.00
2023-04-20T18:18:07.784Z,81.00
2023-04-20T18:20:07.873Z,81.00
2023-04-20T18:22:07.895Z,81.00
2023-04-20T18:24:07.808Z,81.00
2023-04-20T18:26:07.989Z,81.00
2023-04-20T18:28:07.918Z,81.00
2023-04-20T18:30:07.943Z,81.00
2023-04-20T18:32:07.929Z,81.00
2023-04-20T18:34:07.904Z,81.00
2023-04-20T18:36:08.002Z,81.00
2023-04-20T18:38:07.902Z,81.00
2023-04-20T18:40:07.912Z,81.00
2023-04-20T18:42:07.927Z,81.00
2023-04-20T18:44:07.989Z,81.00
2023-04-20T18:46:08.069Z,81.00
2023-04-20T18:48:07.995Z,81.00
2023-04-20T18:50:08.019Z,81.00
2023-04-20T18:52:08.007Z,81.00
2023-04-20T18:54:07.933Z,81.00
2023-04-20T18:56:10.096Z,81.00
2023-04-20T18:58:08.008Z,81.00
2023-04-20T19:00:07.936Z,81.00
2023-04-20T19:02:08.091Z,81.00
2023-04-20T19:04:07.986Z,81.00
2023-04-20T19:06:07.837Z,81.00
2023-04-20T19:08:07.824Z,81.00
2023-04-20T19:10:07.845Z,81.00
2023-04-20T19:12:07.843Z,81.00
2023-04-20T19:14:07.827Z,81.00
2023-04-20T19:16:07.843Z,81.00
2023-04-20T19:18:07.999Z,81.00
2023-04-20T19:20:07.824Z,82.00
2023-04-20T19:22:07.839Z,82.00
2023-04-20T19:24:07.826Z,82.00
2023-04-20T19:26:07.849Z,82.00
2023-04-20T19:28:07.822Z,82.00
2023-04-20T19:30:07.846Z,82.00
2023-04-20T19:32:07.962Z,82.00
2023-04-20T19:34:07.847Z,82.00
2023-04-20T19:36:07.850Z,82.00
2023-04-20T19:38:07.819Z,82.00
2023-04-20T19:40:07.830Z,82.00
2023-04-20T19:42:07.860Z,82.00
2023-04-20T19:44:07.859Z,82.00
2023-04-20T19:46:07.958Z,82.00
2023-04-20T19:48:08.000Z,82.00
2023-04-20T19:50:07.845Z,82.00
2023-04-20T19:52:08.069Z,82.00
2023-04-20T19:54:08.006Z,82.00
2023-04-20T19:56:07.988Z,82.00
2023-04-20T19:58:07.878Z,82.00
2023-04-20T20:00:07.858Z,82.00
2023-04-20T20:02:08.025Z,82.00
2023-04-20T20:04:08.284Z,82.00
2023-04-20T20:06:08.464Z,82.00
2023-04-20T20:08:07.862Z,82.00
2023-04-20T20:10:07.877Z,82.00
2023-04-20T20:12:07.905Z,82.00
2023-04-20T20:14:07.897Z,82.00
2023-04-20T20:16:07.948Z,82.00
2023-04-20T20:18:08.109Z,82.00
2023-04-20T20:20:07.920Z,82.00
2023-04-20T20:22:07.881Z,82.00
2023-04-20T20:24:07.871Z,82.00
2023-04-20T20:26:08.036Z,82.00
2023-04-20T20:28:07.872Z,82.00
2023-04-20T20:30:07.887Z,82.00
2023-04-20T20:32:07.874Z,83.00
2023-04-20T20:34:09.241Z,83.00
2023-04-20T20:36:07.891Z,83.00
2023-04-20T20:38:08.081Z,83.00
2023-04-20T20:40:07.891Z,83.00
2023-04-20T20:42:09.076Z,83.00
2023-04-20T20:44:08.025Z,83.00
2023-04-20T20:46:07.923Z,83.00
2023-04-20T20:48:07.936Z,83.00
2023-04-20T20:50:07.880Z,83.00
2023-04-20T20:52:07.894Z,83.00
2023-04-20T20:54:07.899Z,83.00
2023-04-20T20:56:07.875Z,83.00
2023-04-20T20:58:07.876Z,83.00
2023-04-20T21:00:08.029Z,83.00
2023-04-20T21:02:07.947Z,83.00
2023-04-20T21:04:08.030Z,83.00
2023-04-20T21:06:07.878Z,83.00
2023-04-20T21:08:07.932Z,83.00
2023-04-20T21:10:07.890Z,83.00
2023-04-20T21:12:07.933Z,83.00
2023-04-20T21:14:07.894Z,83.00
2023-04-20T21:16:07.950Z,83.00
2023-04-20T21:18:08.040Z,83.00
2023-04-20T21:20:07.894Z,83.00
2023-04-20T21:22:07.882Z,83.00
2023-04-20T21:24:07.894Z,83.00
2023-04-20T21:26:07.917Z,83.00
2023-04-20T21:28:07.920Z,83.00
2023-04-20T21:30:07.912Z,83.00
2023-04-20T21:32:07.944Z,83.00
2023-04-20T21:34:07.916Z,83.00
2023-04-20T21:37:07.937Z,83.00
2023-04-20T21:39:07.900Z,83.00
2023-04-20T21:41:07.903Z,83.00
2023-04-20T21:43:07.967Z,83.00
2023-04-20T21:45:07.881Z,83.00
2023-04-20T21:47:07.929Z,83.00
2023-04-20T21:49:08.221Z,83.00
2023-04-20T21:51:07.910Z,83.00
2023-04-20T21:53:07.914Z,83.00
2023-04-20T21:55:07.912Z,83.00
2023-04-20T21:57:07.947Z,83.00
2023-04-20T21:59:07.975Z,83.00
2023-04-20T22:01:07.934Z,83.00
2023-04-20T22:03:08.106Z,83.00
2023-04-20T22:05:07.918Z,83.00
2023-04-20T22:07:07.904Z,83.00
2023-04-20T22:09:07.915Z,83.00
2023-04-20T22:11:07.928Z,83.00
2023-04-20T22:13:07.924Z,83.00
2023-04-20T22:15:07.923Z,83.00
2023-04-20T22:17:07.910Z,83.00
2023-04-20T22:19:07.919Z,83.00
2023-04-20T22:21:07.929Z,83.00
2023-04-20T22:23:07.973Z,83.00
2023-04-20T22:25:07.912Z,83.00
2023-04-20T22:27:07.927Z,83.00
2023-04-20T22:29:07.908Z,83.00
2023-04-20T22:31:07.954Z,83.00
2023-04-20T22:33:08.013Z,83.00
2023-04-20T22:35:07.971Z,83.00
2023-04-20T22:37:07.920Z,83.00
2023-04-20T22:39:07.981Z,83.00
2023-04-20T22:41:07.965Z,83.00
2023-04-20T22:43:07.944Z,83.00
2023-04-20T22:45:07.941Z,83.00
2023-04-20T22:47:07.989Z,83.00
2023-04-20T22:49:07.934Z,83.00
2023-04-20T22:51:07.936Z,83.00
2023-04-20T22:53:07.983Z,83.00
2023-04-20T22:55:07.950Z,83.00
2023-04-20T22:57:07.973Z,83.00
2023-04-20T22:59:07.943Z,83.00
2023-04-20T23:01:08.073Z,83.00
2023-04-20T23:03:08.141Z,83.00
2023-04-20T23:05:07.941Z,83.00
2023-04-20T23:07:07.936Z,83.00
2023-04-20T23:09:07.943Z,83.00
2023-04-20T23:11:07.951Z,83.00
2023-04-20T23:13:07.950Z,83.00
2023-04-20T23:15:07.990Z,83.00
2023-04-20T23:17:07.995Z,83.00
2023-04-20T23:19:08.066Z,83.00
2023-04-20T23:21:07.985Z,83.00
2023-04-20T23:23:07.958Z,83.00
2023-04-20T23:25:07.934Z,83.00
2023-04-20T23:27:07.951Z,83.00
2023-04-20T23:29:07.989Z,83.00
2023-04-20T23:31:07.975Z,83.00
2023-04-20T23:33:08.030Z,83.00
2023-04-20T23:35:07.938Z,83.00
2023-04-20T23:37:07.946Z,83.00
2023-04-20T23:39:08.059Z,83.00
2023-04-20T23:41:08.010Z,83.00
2023-04-20T23:43:07.946Z,83.00
2023-04-20T23:45:08.094Z,83.00
2023-04-20T23:47:07.986Z,83.00
2023-04-20T23:49:08.027Z,83.00
